Aeroporto :
LOGIN :

Iscrizione | Disclaimer

   EN    FR    IT 

 










Sommario :    VFR   VFR Marginale   IFR   IFR Intensivo   IFR Molto Intensivo
Visibilità : 
Base nubi : 
>= 8 km
>= 3000ft
5 / 8 km
1000 / 3000 ft
1500m / 5 km
500 / 1000 ft
800 / 1500m
200 / 500 ft
< 800m
< 200 ft
Simboli :   Temporali  Nebbia  Neve Forte  Precipitazioni Forti  Vento > 20 kt
SIGMETs :   Varie  Temporali  Ghiacco  Turbolenza  Onda orograficha  Ceneri Vulcaniche






- Altitudine del aeroporto : 257 ft
- Codice IATA : MAN


EGCC - Manchester

ULTIMO METAR :
  • 221950Z AUTO 22008KT 9999 NCD 06/04 Q1016 TEMPO SHRA

METARs OBSOLETI :
  • 221920Z AUTO 22007KT 9999 BKN044 06/04 Q1016
  • 221850Z AUTO 24008KT 9999 BKN039 OVC045 06/04 Q1016
  • 221820Z AUTO 25012KT 9999 -RA SCT033 BKN045 06/04 Q1016 TEMPO SHRA
  • 221750Z AUTO 27017KT 9999 -RA SCT028/// BKN046/// //////TCU 07/03 Q1016 TEMPO SHRA
  • 221720Z 25027KT 9999 -SHRA FEW012 FEW030TCU 07/03 Q1016

TAF TAF EGCC
Valido dal 22 a 18 ore il 24 a 00 ore UTC


221653Z 2218/2324 26012KT 9999 SCT035
PROB30
TEMPO 2218/2222 24015G25KT 7000 SHRA
BECMG 2222/2302 19005KT 8000 -RA BKN012
TEMPO 2223/2308 3000 RA RADZ BR BKN008
PROB30
TEMPO 2300/2307 +RA
PROB40
TEMPO 2306/2311 BKN003
BECMG 2307/2310 25010KT 9999 NSW
BECMG 2310/2313 31010KT SCT025
PROB40
TEMPO 2310/2313 8000 -RA
BECMG 2318/2321 20009KT
ATIS : +44 161 499 2324



MetMap, La meteo Aeronautica in un colpo d'occhio ! - Copyright ORBIFLY Dicembre 2007 - Disclaimer

ORBIFLY MET'MAP TEAM :

Programmazione e sviluppo : Alexandra Zaïnal
Concezione : Baudouin d'Aumeries
Aiuto per la programmazione : Marc-Olivier Méhu
Supporto tecnico e logistico : Manuel Goepfert
Aiuto per la traduzione : Arnaldo La Scala

Contatto : metmap@orbifly.com




FONTI E CREDITI :

   NOAA